• Join FlightAware (Why Join?)
  • Login
  • US Flag 
06:00PM EDT


 

Airport Tracker/Info


-or-


 

Live Flight TrackerFlight Track Log ✈ DAL3626 ✈ 01-May-2013 ✈ KMSP - KSDF

Flight Track Log - Related Links

Times and Time Zones

All times are in EDT time to prevent confusion due to time zone crossing. See the DAL3626 flight status page for this flight to view local times or setup timezone preferences in your user account.

Time Position Orientation Groundspeed Altitude Reporting Facility
EDT Latitude Longitude Course Direction KTS MPH feet Rate Location/Type
11:48AM 44.9000 -93.2667 133° Southeast 171 197 2,400  Level Minneapolis TRACON
11:49AM 44.8933 -93.3056 256° West 200 230 3,700 1,860 Climbing Minneapolis Center
11:50AM 44.8733 -93.3939 252° West 252 290 5,500 2,340 Climbing Minneapolis Center
11:51AM 44.4786 -92.9826 136° Southeast  Level FlightAware Approximate
11:51AM 44.7919 -93.3686 168° South 279 321 8,600  Level Minneapolis Center
11:52AM 44.3898 -92.8897 144° Southeast  Level FlightAware Approximate
11:52AM 44.7364 -93.2997 139° Southeast 274 315 10,400  Level Minneapolis Center
11:53AM 44.3123 -92.7790 144° Southeast  Level FlightAware Approximate
11:53AM 44.6744 -93.2244 139° Southeast 305 351 11,800  Level Minneapolis Center
11:54AM 44.2299 -92.6864 133° Southeast  Level FlightAware Approximate
11:54AM 44.6069 -93.1419 139° Southeast 324 373 13,200  Level Minneapolis Center
11:55AM 44.5275 -93.0456 139° Southeast 315 362 15,500 1,740 Climbing Minneapolis Center
11:56AM 44.4583 -92.9628 139° Southeast 327 376 16,800 1,080 Climbing Minneapolis Center
11:57AM 44.3858 -92.8756 139° Southeast 344 396 17,800 1,080 Climbing Minneapolis Center
11:58AM 44.3119 -92.7864 139° Southeast 352 405 19,100 1,140 Climbing Minneapolis Center
11:59AM 44.2389 -92.6958 138° Southeast 352 405 20,200 1,020 Climbing Minneapolis Center
12:00PM 44.1625 -92.6022 139° Southeast 362 417 21,200 960 Climbing Minneapolis Center
12:01PM 44.0839 -92.5064 139° Southeast 375 432 22,200 1,080 Climbing Minneapolis Center
12:02PM 43.9886 -92.3892 138° Southeast 380 437 23,500 1,020 Climbing Minneapolis Center
12:03PM 43.9097 -92.2947 139° Southeast 377 434 24,400 780 Climbing Minneapolis Center
12:04PM 43.8292 -92.1961 139° Southeast 385 443 25,100 660 Climbing Minneapolis Center
12:06PM 43.7464 -92.0925 138° Southeast 398 458 25,800 600 Climbing Minneapolis Center
12:07PM 43.6644 -91.9936 139° Southeast 396 456 26,400 480 Climbing Minneapolis Center
12:08PM 43.5808 -91.8942 139° Southeast 398 458 26,900 480 Climbing Minneapolis Center
12:09PM 43.4969 -91.7944 139° Southeast 400 460 27,400 420 Climbing Minneapolis Center
12:10PM 43.4286 -91.7153 140° Southeast 401 461 27,800 480 Climbing Minneapolis Center
12:11PM 43.3086 -91.5722 139° Southeast 405 466 28,500 540 Climbing Minneapolis Center
12:12PM 43.2194 -91.4789 143° Southeast 406 467 29,000 240 Climbing Minneapolis Center
12:13PM 43.1247 -91.3897 145° Southeast 410 472 29,000  Level Minneapolis Center
12:14PM 43.0286 -91.2981 145° Southeast 417 480 29,000  Level Minneapolis Center
12:15PM 42.9306 -91.2050 145° Southeast 424 488 29,000  Level Minneapolis Center
12:15PM 42.8744 -91.1467 143° Southeast 429 494 29,000  Level Chicago Center
12:16PM 42.8092 -91.0053 122° Southeast 444 511 29,000  Level Chicago Center
12:17PM 42.7464 -90.8636 121° Southeast 441 507 29,000  Level Chicago Center
12:18PM 42.6686 -90.6953 122° Southeast 443 510 29,000  Level Chicago Center
12:19PM 42.6042 -90.5556 122° Southeast 440 506 29,000  Level Chicago Center
12:20PM 42.5400 -90.4156 122° Southeast 442 509 29,000  Level Chicago Center
12:22PM 42.4764 -90.2756 122° Southeast 441 507 29,000  Level Chicago Center
12:23PM 42.4108 -90.1361 122° Southeast 442 509 29,000  Level Chicago Center
12:24PM 42.3481 -89.9975 121° Southeast 439 505 29,000  Level Chicago Center
12:25PM 42.2714 -89.8350 122° Southeast 442 509 29,000  Level Chicago Center
12:26PM 42.2064 -89.6936 122° Southeast 443 510 29,000  Level Chicago Center
12:27PM 42.1394 -89.5539 123° Southeast 444 511 29,000  Level Chicago Center
12:28PM 42.0742 -89.4144 122° Southeast 444 511 29,000  Level Chicago Center
12:29PM 42.0039 -89.2658 122° Southeast 443 510 29,000  Level Chicago Center
12:30PM 41.9381 -89.1275 123° Southeast 441 507 29,000  Level Chicago Center
12:31PM 41.8592 -88.9628 123° Southeast 440 506 29,000  Level Chicago Center
12:32PM 41.7917 -88.8233 123° Southeast 445 512 29,000  Level Chicago Center
12:33PM 41.7258 -88.6872 123° Southeast 440 506 29,000  Level Chicago Center
12:34PM 41.6597 -88.5514 123° Southeast 440 506 29,000  Level Chicago Center
12:35PM 41.5936 -88.4142 123° Southeast 442 509 29,000  Level Chicago Center
12:36PM 41.4894 -88.2889 138° Southeast 441 507 29,000  Level Chicago Center
12:37PM 41.3806 -88.2306 158° South 434 499 29,000  Level Chicago Center
12:38PM 41.2711 -88.1725 158° South 438 504 29,000  Level Chicago Center
12:39PM 41.1619 -88.1128 158° South 433 498 29,000  Level Chicago Center
12:40PM 41.0278 -88.0419 158° South 436 502 29,000  Level Chicago Center
12:41PM 40.9158 -87.9819 158° South 437 503 29,000  Level Chicago Center
12:42PM 40.8039 -87.9225 158° South 436 502 29,000  Level Chicago Center
12:43PM 40.6919 -87.8633 158° South 436 502 29,000  Level Chicago Center
12:44PM 40.5797 -87.8042 158° South 438 504 29,000  Level Chicago Center
12:45PM 40.4439 -87.7350 159° South 439 505 29,000  Level Chicago Center
12:46PM 40.3300 -87.6756 158° South 441 507 29,000  Level Chicago Center
12:47PM 40.2808 -87.6525 160° South 441 507 29,000  Level Indianapolis Center
12:47PM 40.2169 -87.6169 157° South 440 506 29,000 -720 Level Chicago Center
12:48PM 40.0919 -87.5533 159° South 442 509 27,900 -1,260 Descending Chicago Center
12:49PM 40.0322 -87.5242 159° South 442 509 27,200 -1,020 Descending Indianapolis Center
12:50PM 39.9192 -87.4667 159° South 436 502 26,400 -900 Descending Indianapolis Center
12:51PM 39.8094 -87.4111 159° South 424 488 25,400 -1,020 Descending Indianapolis Center
12:52PM 39.7022 -87.3558 158° South 415 478 24,400 -1,020 Descending Indianapolis Center
12:53PM 39.5958 -87.3036 159° South 408 470 23,400 -1,020 Descending Indianapolis Center
12:54PM 39.4917 -87.2478 158° South 404 465 22,300 -1,080 Descending Indianapolis Center
12:55PM 39.3947 -87.1308 137° Southeast 406 467 21,200 -780 Descending Indianapolis Center
12:56PM 39.3139 -87.0300 136° Southeast 405 466 20,800 -1,020 Descending Indianapolis Center
12:57PM 39.2361 -86.9347 136° Southeast 390 449 19,200 -1,500 Descending Indianapolis Center
12:58PM 39.1617 -86.8442 137° Southeast 373 429 17,800 -1,380 Descending Indianapolis Center
12:59PM 39.0894 -86.7553 136° Southeast 359 413 16,400 -1,500 Descending Indianapolis Center
01:00PM 39.0197 -86.6694 136° Southeast 349 402 14,800 -1,620 Descending Indianapolis Center
01:01PM 38.9417 -86.5758 137° Southeast 338 389 13,100 -1,560 Descending Indianapolis Center
01:02PM 38.8764 -86.4969 137° Southeast 328 377 11,600 -1,020 Descending Indianapolis Center
01:03PM 38.8106 -86.4172 137° Southeast 313 360 11,000 -540 Descending Indianapolis Center
01:04PM 38.7494 -86.3506 140° Southeast 296 341 10,600 -1,020 Descending Indianapolis Center
01:05PM 38.6883 -86.3028 149° Southeast 263 303 9,000 -1,740 Descending Indianapolis Center
01:06PM 38.6300 -86.2558 148° Southeast 250 288 7,100 -1,500 Descending Indianapolis Center
01:07PM 38.5683 -86.2064 148° Southeast 256 295 6,000 -540 Descending Indianapolis Center
01:08PM 38.5083 -86.1581 148° Southeast 255 293 6,000  Level Indianapolis Center
01:10PM 38.4486 -86.1108 148° Southeast 252 290 6,000  Level Indianapolis Center
01:11PM 38.3900 -86.0642 148° Southeast 249 287 6,000  Level Indianapolis Center
01:12PM 38.3200 -86.0072 147° Southeast 247 284 6,000 -60 Level Indianapolis Center
01:13PM 38.2603 -85.9608 149° Southeast 250 288 5,900 -960 Descending Indianapolis Center
01:14PM 38.1969 -85.9247 156° South 259 298 4,100 -960 Descending Indianapolis Center
01:15PM 38.1514 -85.8689 136° Southeast 235 270 4,000 -420 Descending Indianapolis Center
01:16PM 38.0994 -85.8286 149° Southeast 224 258 3,300 -780 Descending Indianapolis Center
01:17PM 38.0483 -85.7875 148° Southeast 220 253 2,500 -420 Descending Indianapolis Center
01:18PM 37.9989 -85.7481 148° Southeast 219 252 2,500  Level Indianapolis Center